createdAt,value
2018-05-01T00:00:10.050Z,8.60
2018-05-01T00:02:39.140Z,8.40
2018-05-01T00:05:08.229Z,8.50
2018-05-01T00:07:37.333Z,8.17
2018-05-01T00:10:06.449Z,9.70
2018-05-01T00:12:35.548Z,8.33
2018-05-01T00:15:04.657Z,9.20
2018-05-01T00:17:33.859Z,8.70
2018-05-01T00:20:03.017Z,8.23
2018-05-01T00:22:32.057Z,8.73
2018-05-01T00:25:01.151Z,7.73
2018-05-01T00:27:30.328Z,8.10
2018-05-01T00:29:59.403Z,8.70
2018-05-01T00:32:28.614Z,6.93
2018-05-01T00:34:57.793Z,7.10
2018-05-01T00:37:26.903Z,7.43
2018-05-01T00:39:56.123Z,7.33
2018-05-01T00:42:25.278Z,6.50
2018-05-01T00:44:54.412Z,6.00
2018-05-01T00:47:23.677Z,6.70
2018-05-01T00:49:52.874Z,6.23
2018-05-01T00:52:28.001Z,6.67
2018-05-01T00:54:57.097Z,5.80
2018-05-01T00:57:26.187Z,6.20
2018-05-01T00:59:55.391Z,5.40
2018-05-01T01:02:24.585Z,5.40
2018-05-01T01:04:53.789Z,6.50
2018-05-01T01:07:22.882Z,5.77
2018-05-01T01:09:52.281Z,4.50
2018-05-01T01:12:21.374Z,5.77
2018-05-01T01:14:50.463Z,5.63
2018-05-01T01:17:19.659Z,5.07
2018-05-01T01:19:48.804Z,6.93
2018-05-01T01:22:17.915Z,4.70
2018-05-01T01:24:47.051Z,5.73
2018-05-01T01:27:16.240Z,5.80
2018-05-01T01:29:45.321Z,5.67
2018-05-01T01:32:14.537Z,5.87
2018-05-01T01:34:43.638Z,5.27
2018-05-01T01:37:12.487Z,4.20
2018-05-01T01:39:41.429Z,4.90
2018-05-01T01:42:10.288Z,5.63
2018-05-01T01:44:39.145Z,5.27
2018-05-01T01:47:07.996Z,4.80
2018-05-01T01:49:36.853Z,4.57
2018-05-01T01:52:05.774Z,4.70
2018-05-01T01:54:34.958Z,4.70
2018-05-01T01:57:03.832Z,4.87
2018-05-01T01:59:32.694Z,4.47
2018-05-01T02:02:01.633Z,5.40
2018-05-01T02:04:30.490Z,4.90
2018-05-01T02:06:59.391Z,5.20
2018-05-01T02:09:28.244Z,6.20
2018-05-01T02:11:57.107Z,5.63
2018-05-01T02:14:25.961Z,5.77
2018-05-01T02:16:54.838Z,5.17
2018-05-01T02:19:23.737Z,5.33
2018-05-01T02:21:53.853Z,6.50
2018-05-01T02:24:22.745Z,5.80
2018-05-01T02:26:51.598Z,6.17
2018-05-01T02:29:20.816Z,6.40
2018-05-01T02:31:49.729Z,5.97
2018-05-01T02:34:18.665Z,6.87
2018-05-01T02:36:47.529Z,6.53
2018-05-01T02:39:17.505Z,7.03
2018-05-01T02:41:46.413Z,6.50
2018-05-01T02:44:15.317Z,7.00
2018-05-01T02:46:44.177Z,8.33
2018-05-01T02:49:13.071Z,8.17
2018-05-01T02:51:42.046Z,7.30
2018-05-01T02:54:10.938Z,7.73
2018-05-01T02:56:39.785Z,8.10
2018-05-01T02:59:08.731Z,8.27
2018-05-01T03:01:37.598Z,8.03
2018-05-01T03:04:06.499Z,7.20
2018-05-01T03:06:35.359Z,7.83
2018-05-01T03:09:04.226Z,8.43
2018-05-01T03:11:33.086Z,8.27
2018-05-01T03:14:01.966Z,7.83
2018-05-01T03:16:30.833Z,7.83
2018-05-01T03:18:59.721Z,8.83
2018-05-01T03:21:28.586Z,8.50
2018-05-01T03:23:57.442Z,9.20
2018-05-01T03:26:26.399Z,9.23
2018-05-01T03:28:55.289Z,8.97
2018-05-01T03:31:24.173Z,8.60
2018-05-01T03:33:53.018Z,8.40
2018-05-01T03:36:21.885Z,8.93
2018-05-01T03:38:50.851Z,8.67
2018-05-01T03:41:19.728Z,8.13
2018-05-01T03:43:48.585Z,8.80
2018-05-01T03:46:17.515Z,7.57
2018-05-01T03:48:46.366Z,8.67
2018-05-01T03:51:15.281Z,10.10
2018-05-01T03:53:44.134Z,8.67
2018-05-01T03:56:13.038Z,8.80
2018-05-01T03:58:41.865Z,10.10
2018-05-01T04:01:10.732Z,7.83
2018-05-01T04:03:39.579Z,8.77
2018-05-01T04:06:08.510Z,9.30
2018-05-01T04:08:37.386Z,9.20
2018-05-01T04:11:06.292Z,8.20
2018-05-01T04:13:35.156Z,8.53
2018-05-01T04:16:04.037Z,10.17
2018-05-01T04:18:32.874Z,8.77
2018-05-01T04:21:01.725Z,9.87
2018-05-01T04:23:30.628Z,8.77
2018-05-01T04:25:59.487Z,8.43
2018-05-01T04:28:33.435Z,8.90
2018-05-01T04:31:02.309Z,10.40
2018-05-01T04:33:31.208Z,10.17
2018-05-01T04:36:00.105Z,10.97
2018-05-01T04:38:28.952Z,10.90
2018-05-01T04:40:57.869Z,12.10
2018-05-01T04:43:26.737Z,11.83
2018-05-01T04:45:55.649Z,13.80
2018-05-01T04:48:24.545Z,13.00
2018-05-01T04:50:53.426Z,11.77
2018-05-01T04:53:22.309Z,14.10
2018-05-01T04:55:51.203Z,15.50
2018-05-01T04:58:20.077Z,16.43
2018-05-01T05:00:48.949Z,16.40
2018-05-01T05:03:17.869Z,15.40
2018-05-01T05:05:46.752Z,15.13
2018-05-01T05:08:15.641Z,16.07
2018-05-01T05:10:44.528Z,17.33
2018-05-01T05:13:13.379Z,13.97
2018-05-01T05:15:43.209Z,17.13
2018-05-01T05:18:12.129Z,18.10
2018-05-01T05:20:40.976Z,21.57
2018-05-01T05:23:09.900Z,19.40
2018-05-01T05:25:38.769Z,19.27
2018-05-01T05:28:07.638Z,19.73
2018-05-01T05:30:36.595Z,20.40
2018-05-01T05:33:05.505Z,19.50
2018-05-01T05:35:34.357Z,19.13
2018-05-01T05:38:03.217Z,20.50
2018-05-01T05:40:32.068Z,20.87
2018-05-01T05:43:00.939Z,20.10
2018-05-01T05:45:29.797Z,21.07
2018-05-01T05:47:58.701Z,20.40
2018-05-01T05:50:27.550Z,20.17
2018-05-01T05:52:56.417Z,19.23
2018-05-01T05:55:25.277Z,21.33
2018-05-01T05:57:55.109Z,20.80
2018-05-01T06:00:23.972Z,19.27
2018-05-01T06:02:52.821Z,18.03
2018-05-01T06:05:21.837Z,18.40
2018-05-01T06:07:50.797Z,18.27
2018-05-01T06:10:19.613Z,18.87
2018-05-01T06:12:48.513Z,17.83
2018-05-01T06:15:17.382Z,18.80
2018-05-01T06:17:46.277Z,16.80
2018-05-01T06:20:15.131Z,16.67
2018-05-01T06:22:43.993Z,16.17
2018-05-01T06:25:12.948Z,15.40
2018-05-01T06:27:41.864Z,17.30
2018-05-01T06:30:10.729Z,16.90
2018-05-01T06:32:39.619Z,17.80
2018-05-01T06:35:08.508Z,17.53
2018-05-01T06:37:37.348Z,17.23
2018-05-01T06:40:06.277Z,16.67
2018-05-01T06:42:35.145Z,15.37
2018-05-01T06:45:04.024Z,17.00
2018-05-01T06:47:32.949Z,17.13
2018-05-01T06:50:01.833Z,16.93
2018-05-01T06:52:30.737Z,17.27
2018-05-01T06:54:59.637Z,15.57
2018-05-01T06:57:28.500Z,17.00
2018-05-01T06:59:57.423Z,17.13
2018-05-01T07:02:26.285Z,15.40
2018-05-01T07:04:55.161Z,15.30
2018-05-01T07:07:24.042Z,15.17
2018-05-01T07:09:53.860Z,16.53
2018-05-01T07:12:22.771Z,14.40
2018-05-01T07:14:51.693Z,14.90
2018-05-01T07:17:20.546Z,14.67
2018-05-01T07:19:49.433Z,14.03
2018-05-01T07:22:18.308Z,13.97
2018-05-01T07:24:47.197Z,15.40
2018-05-01T07:27:16.405Z,15.43
2018-05-01T07:29:45.296Z,15.00
2018-05-01T07:32:15.130Z,15.27
2018-05-01T07:34:44.047Z,13.80
2018-05-01T07:37:12.913Z,13.93
2018-05-01T07:39:41.772Z,12.93
2018-05-01T07:42:10.716Z,12.70
2018-05-01T07:44:39.683Z,13.57
2018-05-01T07:47:08.547Z,12.43
2018-05-01T07:49:37.421Z,12.90
2018-05-01T07:52:06.286Z,13.20
2018-05-01T07:54:35.162Z,14.10
2018-05-01T07:57:04.029Z,13.50
2018-05-01T07:59:32.993Z,13.70
2018-05-01T08:02:01.842Z,14.47
2018-05-01T08:04:30.774Z,12.50
2018-05-01T08:06:59.701Z,12.63
2018-05-01T08:09:28.577Z,12.57
2018-05-01T08:11:57.441Z,11.40
2018-05-01T08:14:26.309Z,12.00
2018-05-01T08:16:55.201Z,10.67
2018-05-01T08:19:24.090Z,10.93
2018-05-01T08:21:53.024Z,11.67
2018-05-01T08:24:21.887Z,9.87
2018-05-01T08:26:50.748Z,10.27
2018-05-01T08:29:19.664Z,9.57
2018-05-01T08:31:48.533Z,10.20
2018-05-01T08:34:17.472Z,9.33
2018-05-01T08:36:46.308Z,9.00
2018-05-01T08:39:15.162Z,9.10
2018-05-01T08:41:44.053Z,8.50
2018-05-01T08:44:13.003Z,8.27
2018-05-01T08:46:41.869Z,8.27
2018-05-01T08:49:10.777Z,9.27
2018-05-01T08:51:39.623Z,7.50
2018-05-01T08:54:08.504Z,6.80
2018-05-01T08:56:37.431Z,7.47
2018-05-01T08:59:06.306Z,6.77
2018-05-01T09:01:35.197Z,7.47
2018-05-01T09:04:04.069Z,7.13
2018-05-01T09:06:33.007Z,7.03
2018-05-01T09:09:01.897Z,7.10
2018-05-01T09:11:30.785Z,7.97
2018-05-01T09:13:59.629Z,7.50
2018-05-01T09:16:28.496Z,6.17
2018-05-01T09:18:57.345Z,6.57
2018-05-01T09:21:26.224Z,6.77
2018-05-01T09:23:55.161Z,6.73
2018-05-01T09:26:23.978Z,6.60
2018-05-01T09:28:52.872Z,6.87
2018-05-01T09:31:25.302Z,6.33
2018-05-01T09:33:54.179Z,7.43
2018-05-01T09:36:23.048Z,6.50
2018-05-01T09:38:51.910Z,7.40
2018-05-01T09:41:20.810Z,6.93
2018-05-01T09:43:49.685Z,6.90
2018-05-01T09:46:18.541Z,6.60
2018-05-01T09:48:47.398Z,6.87
2018-05-01T09:51:16.362Z,6.60
2018-05-01T09:53:45.549Z,6.83
2018-05-01T09:56:14.753Z,7.30
2018-05-01T09:58:43.867Z,7.30
2018-05-01T10:01:12.973Z,7.73
2018-05-01T10:03:42.069Z,6.60
2018-05-01T10:06:11.227Z,8.27
2018-05-01T10:08:40.438Z,8.20
2018-05-01T10:11:09.634Z,8.00
2018-05-01T10:13:38.858Z,7.83
2018-05-01T10:16:07.976Z,7.50
2018-05-01T10:18:37.110Z,7.80
2018-05-01T10:21:06.213Z,7.90
2018-05-01T10:23:35.329Z,8.03
2018-05-01T10:26:04.437Z,9.40
2018-05-01T10:28:33.553Z,7.40
2018-05-01T10:31:04.640Z,8.60
2018-05-01T10:33:33.773Z,8.70
2018-05-01T10:36:02.937Z,7.30
2018-05-01T10:38:32.039Z,7.63
2018-05-01T10:41:01.213Z,7.23
2018-05-01T10:43:30.288Z,6.87
2018-05-01T10:45:59.397Z,7.83
2018-05-01T10:48:28.526Z,7.80
2018-05-01T10:50:57.854Z,8.50
2018-05-01T10:53:26.970Z,6.83
2018-05-01T10:55:56.180Z,7.37
2018-05-01T10:58:25.379Z,7.70
2018-05-01T11:00:54.565Z,7.13
2018-05-01T11:03:23.773Z,7.37
2018-05-01T11:05:52.958Z,7.10
2018-05-01T11:08:22.155Z,6.80
2018-05-01T11:10:51.245Z,7.07
2018-05-01T11:13:20.360Z,6.70
2018-05-01T11:15:49.559Z,6.27
2018-05-01T11:18:18.760Z,7.17
2018-05-01T11:20:48.053Z,6.20
2018-05-01T11:23:17.153Z,5.90
2018-05-01T11:25:46.338Z,6.20
2018-05-01T11:28:15.525Z,6.10
2018-05-01T11:30:44.734Z,6.37
2018-05-01T11:33:13.936Z,5.70
2018-05-01T11:35:43.035Z,5.30
2018-05-01T11:38:12.145Z,6.30
2018-05-01T11:40:42.160Z,5.53
2018-05-01T11:43:11.314Z,5.70
2018-05-01T11:45:40.517Z,4.20
2018-05-01T11:48:09.640Z,5.77
2018-05-01T11:50:38.817Z,5.40
2018-05-01T11:53:07.996Z,5.30
2018-05-01T11:55:37.079Z,4.90
2018-05-01T11:58:06.283Z,5.70
2018-05-01T12:00:35.380Z,4.43
2018-05-01T12:03:04.477Z,4.77
2018-05-01T12:05:33.671Z,5.23
2018-05-01T12:08:02.883Z,5.40
2018-05-01T12:10:32.089Z,4.97
2018-05-01T12:13:01.270Z,5.60
2018-05-01T12:15:30.466Z,4.97
2018-05-01T12:17:59.665Z,5.83
2018-05-01T12:20:28.853Z,5.73
2018-05-01T12:22:57.949Z,5.17
2018-05-01T12:25:27.227Z,5.30
2018-05-01T12:27:56.312Z,4.80
2018-05-01T12:30:25.421Z,5.53
2018-05-01T12:32:54.525Z,4.90
2018-05-01T12:35:23.652Z,5.50
2018-05-01T12:37:52.829Z,6.10
2018-05-01T12:40:22.913Z,5.53
2018-05-01T12:42:52.026Z,5.67
2018-05-01T12:45:21.229Z,6.10
2018-05-01T12:47:50.380Z,6.10
2018-05-01T12:50:19.514Z,6.00
2018-05-01T12:52:48.593Z,5.47
2018-05-01T12:55:17.810Z,5.27
2018-05-01T12:57:46.915Z,5.90
2018-05-01T13:00:16.001Z,5.43
2018-05-01T13:02:45.107Z,5.27
2018-05-01T13:05:14.328Z,5.20
2018-05-01T13:07:43.585Z,5.23
2018-05-01T13:10:14.068Z,5.43
2018-05-01T13:12:43.295Z,5.53
2018-05-01T13:15:12.497Z,5.40
2018-05-01T13:17:41.589Z,5.80
2018-05-01T13:20:10.707Z,5.10
2018-05-01T13:22:39.781Z,6.30
2018-05-01T13:25:08.894Z,6.23
2018-05-01T13:27:37.976Z,5.90
2018-05-01T13:30:07.207Z,5.50
2018-05-01T13:32:36.408Z,5.90
2018-05-01T13:35:05.481Z,5.50
2018-05-01T13:37:34.576Z,5.93
2018-05-01T13:40:03.730Z,5.73
2018-05-01T13:42:32.839Z,4.90
2018-05-01T13:45:02.035Z,4.50
2018-05-01T13:47:31.166Z,5.20
2018-05-01T13:50:00.277Z,4.80
2018-05-01T13:52:29.396Z,4.50
2018-05-01T13:54:58.494Z,5.10
2018-05-01T13:57:28.538Z,5.30
2018-05-01T13:59:57.619Z,5.07
2018-05-01T14:02:26.726Z,4.93
2018-05-01T14:04:56.033Z,5.40
2018-05-01T14:07:25.153Z,5.30
2018-05-01T14:09:54.256Z,4.70
2018-05-01T14:12:23.406Z,4.77
2018-05-01T14:14:52.495Z,5.47
2018-05-01T14:17:21.601Z,5.33
2018-05-01T14:19:50.694Z,5.93
2018-05-01T14:22:19.881Z,5.10
2018-05-01T14:24:48.985Z,6.00
2018-05-01T14:27:18.173Z,4.73
2018-05-01T14:29:47.321Z,4.87
2018-05-01T14:32:16.401Z,5.10
2018-05-01T14:34:45.548Z,4.33
2018-05-01T14:37:15.664Z,4.97
2018-05-01T14:39:44.768Z,5.37
2018-05-01T14:42:13.861Z,4.20
2018-05-01T14:44:43.256Z,3.90
2018-05-01T14:47:12.358Z,3.50
2018-05-01T14:49:41.553Z,3.50
2018-05-01T14:52:10.743Z,3.17
2018-05-01T14:54:39.837Z,3.80
2018-05-01T14:57:08.925Z,4.00
2018-05-01T14:59:38.032Z,3.07
2018-05-01T15:02:08.119Z,3.23
2018-05-01T15:04:37.206Z,4.30
2018-05-01T15:07:07.261Z,3.97
2018-05-01T15:09:36.486Z,4.50
2018-05-01T15:12:05.669Z,3.70
2018-05-01T15:14:35.771Z,4.30
2018-05-01T15:17:04.854Z,3.80
2018-05-01T15:19:33.949Z,3.30
2018-05-01T15:22:03.059Z,3.40
2018-05-01T15:24:32.157Z,3.10
2018-05-01T15:27:01.273Z,3.10
2018-05-01T15:29:32.337Z,3.87
2018-05-01T15:32:01.502Z,3.40
2018-05-01T15:34:30.586Z,3.50
2018-05-01T15:36:59.675Z,3.17
2018-05-01T15:39:28.769Z,3.10
2018-05-01T15:41:57.953Z,3.20
2018-05-01T15:44:27.243Z,3.67
2018-05-01T15:46:56.319Z,3.43
2018-05-01T15:49:25.406Z,3.90
2018-05-01T15:51:58.725Z,3.40
2018-05-01T15:54:27.836Z,3.60
2018-05-01T15:56:57.013Z,3.40
2018-05-01T15:59:26.109Z,3.50
2018-05-01T16:01:55.332Z,2.80
2018-05-01T16:04:24.397Z,3.30
2018-05-01T16:06:54.492Z,3.00
2018-05-01T16:09:23.616Z,3.17
2018-05-01T16:11:52.715Z,3.27
2018-05-01T16:14:21.937Z,2.83
2018-05-01T16:16:50.930Z,2.80
2018-05-01T16:19:20.033Z,3.60
2018-05-01T16:21:49.132Z,3.23
2018-05-01T16:24:18.226Z,3.10
2018-05-01T16:26:47.488Z,3.30
2018-05-01T16:29:16.674Z,3.50
2018-05-01T16:31:45.866Z,3.00
2018-05-01T16:34:15.060Z,3.40
2018-05-01T16:36:47.725Z,3.17
2018-05-01T16:39:17.104Z,3.70
2018-05-01T16:41:46.189Z,3.30
2018-05-01T16:44:15.291Z,3.20
2018-05-01T16:46:44.430Z,2.73
2018-05-01T16:49:18.509Z,3.40
2018-05-01T16:51:47.620Z,3.90
2018-05-01T16:54:17.746Z,3.20
2018-05-01T16:56:46.885Z,2.63
2018-05-01T16:59:15.958Z,3.10
2018-05-01T17:01:45.137Z,2.93
2018-05-01T17:04:14.326Z,3.30
2018-05-01T17:06:43.420Z,3.57
2018-05-01T17:09:12.534Z,2.70
2018-05-01T17:11:41.731Z,3.50
2018-05-01T17:14:10.902Z,3.50
2018-05-01T17:16:40.113Z,3.63
2018-05-01T17:19:09.404Z,3.17
2018-05-01T17:21:38.572Z,3.10
2018-05-01T17:24:07.660Z,3.10
2018-05-01T17:26:36.796Z,3.10
2018-05-01T17:29:06.042Z,2.90
2018-05-01T17:31:35.073Z,2.90
2018-05-01T17:34:04.277Z,3.13
2018-05-01T17:36:33.409Z,2.97
2018-05-01T17:39:03.462Z,3.57
2018-05-01T17:41:32.681Z,3.03
2018-05-01T17:44:03.711Z,3.50
2018-05-01T17:46:33.005Z,3.57
2018-05-01T17:49:02.129Z,3.13
2018-05-01T17:51:31.231Z,3.30
2018-05-01T17:54:00.328Z,3.23
2018-05-01T17:56:29.494Z,3.60
2018-05-01T17:58:58.701Z,3.43
2018-05-01T18:01:28.806Z,3.37
2018-05-01T18:03:59.831Z,3.30
2018-05-01T18:06:29.996Z,3.43
2018-05-01T18:09:00.237Z,4.10
2018-05-01T18:11:29.418Z,3.43
2018-05-01T18:13:58.563Z,3.87
2018-05-01T18:16:31.265Z,3.03
2018-05-01T18:19:00.386Z,3.03
2018-05-01T18:21:29.566Z,2.93
2018-05-01T18:23:58.785Z,2.50
2018-05-01T18:26:27.858Z,3.00
2018-05-01T18:28:57.050Z,3.20
2018-05-01T18:31:26.236Z,3.70
2018-05-01T18:33:55.324Z,2.93
2018-05-01T18:36:24.438Z,4.60
2018-05-01T18:38:53.574Z,4.43
2018-05-01T18:41:22.698Z,4.90
2018-05-01T18:43:51.857Z,17.70
2018-05-01T18:46:20.961Z,5.73
2018-05-01T18:48:50.068Z,4.10
2018-05-01T18:51:19.189Z,4.60
2018-05-01T18:53:49.312Z,13.43
2018-05-01T18:56:18.590Z,5.87
2018-05-01T18:58:47.890Z,5.50
2018-05-01T19:01:17.055Z,5.10
2018-05-01T19:03:46.162Z,5.30
2018-05-01T19:06:15.750Z,3.93
2018-05-01T19:08:44.860Z,4.13
2018-05-01T19:11:13.983Z,5.67
2018-05-01T19:13:43.098Z,5.00
2018-05-01T19:16:12.237Z,5.20
2018-05-01T19:18:41.382Z,4.30
2018-05-01T19:21:10.541Z,3.90
2018-05-01T19:23:39.621Z,3.50
2018-05-01T19:26:08.958Z,3.70
2018-05-01T19:28:38.154Z,4.37
2018-05-01T19:31:07.243Z,3.80
2018-05-01T19:33:36.449Z,4.40
2018-05-01T19:36:06.631Z,3.80
2018-05-01T19:38:35.809Z,5.00
2018-05-01T19:41:07.897Z,4.57
2018-05-01T19:43:37.972Z,4.93
2018-05-01T19:46:07.132Z,4.70
2018-05-01T19:48:36.335Z,4.87
2018-05-01T19:51:05.437Z,4.90
2018-05-01T19:53:37.814Z,4.53
2018-05-01T19:56:08.691Z,4.60
2018-05-01T19:58:37.791Z,4.37
2018-05-01T20:01:08.906Z,4.03
2018-05-01T20:03:38.885Z,4.53
2018-05-01T20:06:08.995Z,4.77
2018-05-01T20:08:38.219Z,4.40
2018-05-01T20:11:07.290Z,4.50
2018-05-01T20:13:36.493Z,5.27
2018-05-01T20:16:05.588Z,6.43
2018-05-01T20:18:34.793Z,7.67
2018-05-01T20:21:03.985Z,7.03
2018-05-01T20:23:33.200Z,6.37
2018-05-01T20:26:02.311Z,6.50
2018-05-01T20:28:31.453Z,5.50
2018-05-01T20:31:01.590Z,5.03
2018-05-01T20:33:30.739Z,4.60
2018-05-01T20:35:59.860Z,5.03
2018-05-01T20:38:28.986Z,5.40
2018-05-01T20:40:58.088Z,4.87
2018-05-01T20:43:27.214Z,4.40
2018-05-01T20:45:56.377Z,6.07
2018-05-01T20:48:25.548Z,5.50
2018-05-01T20:50:54.736Z,4.93
2018-05-01T20:53:24.760Z,5.47
2018-05-01T20:55:53.860Z,5.57
2018-05-01T20:58:22.954Z,5.33
2018-05-01T21:00:52.076Z,6.30
2018-05-01T21:03:21.214Z,5.67
2018-05-01T21:05:50.328Z,5.10
2018-05-01T21:08:19.453Z,4.70
2018-05-01T21:10:48.642Z,5.07
2018-05-01T21:13:18.762Z,6.10
2018-05-01T21:15:47.840Z,5.40
2018-05-01T21:18:17.078Z,5.53
2018-05-01T21:20:46.209Z,6.40
2018-05-01T21:23:15.321Z,5.70
2018-05-01T21:25:44.414Z,5.20
2018-05-01T21:28:13.514Z,5.33
2018-05-01T21:30:42.590Z,4.90
2018-05-01T21:33:11.706Z,5.73
2018-05-01T21:35:40.883Z,6.20
2018-05-01T21:38:10.092Z,5.40
2018-05-01T21:40:39.193Z,5.40
2018-05-01T21:43:08.300Z,5.30
2018-05-01T21:45:37.462Z,5.30
2018-05-01T21:48:06.887Z,5.37
2018-05-01T21:50:36.068Z,5.40
2018-05-01T21:53:05.185Z,4.80
2018-05-01T21:55:34.357Z,4.93
2018-05-01T21:58:03.455Z,4.83
2018-05-01T22:00:32.544Z,5.67
2018-05-01T22:03:01.758Z,5.10
2018-05-01T22:05:30.924Z,5.20
2018-05-01T22:08:00.117Z,5.40
2018-05-01T22:10:29.318Z,5.13
2018-05-01T22:12:58.412Z,5.00
2018-05-01T22:15:27.609Z,6.20
2018-05-01T22:17:56.720Z,5.73
2018-05-01T22:20:25.905Z,5.50
2018-05-01T22:22:55.312Z,7.23
2018-05-01T22:25:24.393Z,5.53
2018-05-01T22:27:53.580Z,6.23
2018-05-01T22:30:22.685Z,5.80
2018-05-01T22:32:51.793Z,6.60
2018-05-01T22:35:20.921Z,5.77
2018-05-01T22:37:50.021Z,7.17
2018-05-01T22:40:20.049Z,6.57
2018-05-01T22:42:49.166Z,6.47
2018-05-01T22:45:18.266Z,7.40
2018-05-01T22:47:47.361Z,7.90
2018-05-01T22:50:16.459Z,8.27
2018-05-01T22:52:46.528Z,7.73
2018-05-01T22:55:15.982Z,7.60
2018-05-01T22:57:45.077Z,7.60
2018-05-01T23:00:14.158Z,7.97
2018-05-01T23:02:43.253Z,7.10
2018-05-01T23:05:12.344Z,7.07
2018-05-01T23:07:41.557Z,9.60
2018-05-01T23:10:10.637Z,8.03
2018-05-01T23:12:39.726Z,8.03
2018-05-01T23:15:08.849Z,10.00
2018-05-01T23:17:37.949Z,8.87
2018-05-01T23:20:07.117Z,9.80
2018-05-01T23:22:36.213Z,10.50
2018-05-01T23:25:06.318Z,8.80
2018-05-01T23:27:35.417Z,8.90
2018-05-01T23:30:04.509Z,10.87
2018-05-01T23:32:33.625Z,8.97
2018-05-01T23:35:02.714Z,10.40
2018-05-01T23:37:33.834Z,11.80
2018-05-01T23:40:02.964Z,11.40
2018-05-01T23:42:32.069Z,10.40
2018-05-01T23:45:01.176Z,12.37
2018-05-01T23:47:30.321Z,12.73
2018-05-01T23:49:59.520Z,12.73
2018-05-01T23:52:29.624Z,13.33
2018-05-01T23:54:58.750Z,14.03
2018-05-01T23:57:29.161Z,12.10
2018-05-01T23:59:58.256Z,11.93
